sensor_id;sensor_type;location;lat;lon;timestamp;temperature;humidity
9466;DHT22;4771;48.726;9.006;2023-05-07T00:01:37;13.80;99.90
9466;DHT22;4771;48.726;9.006;2023-05-07T00:04:05;13.80;99.90
9466;DHT22;4771;48.726;9.006;2023-05-07T00:06:33;13.70;99.90
9466;DHT22;4771;48.726;9.006;2023-05-07T00:09:01;13.70;99.90
9466;DHT22;4771;48.726;9.006;2023-05-07T00:11:29;13.80;99.90
9466;DHT22;4771;48.726;9.006;2023-05-07T00:13:56;13.70;99.90
9466;DHT22;4771;48.726;9.006;2023-05-07T00:16:23;13.70;99.90
9466;DHT22;4771;48.726;9.006;2023-05-07T00:18:50;13.70;99.90
9466;DHT22;4771;48.726;9.006;2023-05-07T00:21:17;13.60;99.90
9466;DHT22;4771;48.726;9.006;2023-05-07T00:23:44;13.70;99.90
9466;DHT22;4771;48.726;9.006;2023-05-07T00:26:12;13.70;99.90
9466;DHT22;4771;48.726;9.006;2023-05-07T00:28:39;13.60;99.90
9466;DHT22;4771;48.726;9.006;2023-05-07T00:31:06;13.60;99.90
9466;DHT22;4771;48.726;9.006;2023-05-07T00:33:33;13.60;99.90
9466;DHT22;4771;48.726;9.006;2023-05-07T00:36:00;13.50;99.90
9466;DHT22;4771;48.726;9.006;2023-05-07T00:38:27;13.60;99.90
9466;DHT22;4771;48.726;9.006;2023-05-07T00:40:54;13.50;99.90
9466;DHT22;4771;48.726;9.006;2023-05-07T00:43:22;13.40;99.90
9466;DHT22;4771;48.726;9.006;2023-05-07T00:45:49;13.50;99.90
9466;DHT22;4771;48.726;9.006;2023-05-07T00:48:16;13.50;99.90
9466;DHT22;4771;48.726;9.006;2023-05-07T00:50:44;13.40;99.90
9466;DHT22;4771;48.726;9.006;2023-05-07T00:53:12;13.40;99.90
9466;DHT22;4771;48.726;9.006;2023-05-07T00:55:39;13.40;99.90
9466;DHT22;4771;48.726;9.006;2023-05-07T00:58:06;13.40;99.90
9466;DHT22;4771;48.726;9.006;2023-05-07T01:00:35;13.40;99.90
9466;DHT22;4771;48.726;9.006;2023-05-07T01:03:02;13.40;99.90
9466;DHT22;4771;48.726;9.006;2023-05-07T01:05:29;13.40;99.90
9466;DHT22;4771;48.726;9.006;2023-05-07T01:07:57;13.30;99.90
9466;DHT22;4771;48.726;9.006;2023-05-07T01:10:24;13.30;99.90
9466;DHT22;4771;48.726;9.006;2023-05-07T01:12:51;13.30;99.90
9466;DHT22;4771;48.726;9.006;2023-05-07T01:15:19;13.30;99.90
9466;DHT22;4771;48.726;9.006;2023-05-07T01:17:47;13.30;99.90
9466;DHT22;4771;48.726;9.006;2023-05-07T01:20:14;13.30;99.90
9466;DHT22;4771;48.726;9.006;2023-05-07T01:22:43;13.20;99.90
9466;DHT22;4771;48.726;9.006;2023-05-07T01:25:12;13.30;99.90
9466;DHT22;4771;48.726;9.006;2023-05-07T01:27:41;13.30;99.90
9466;DHT22;4771;48.726;9.006;2023-05-07T01:30:09;13.20;99.90
9466;DHT22;4771;48.726;9.006;2023-05-07T01:32:40;13.20;99.90
9466;DHT22;4771;48.726;9.006;2023-05-07T01:35:11;13.20;99.90
9466;DHT22;4771;48.726;9.006;2023-05-07T01:37:38;13.20;99.90
9466;DHT22;4771;48.726;9.006;2023-05-07T01:40:07;13.20;99.90
9466;DHT22;4771;48.726;9.006;2023-05-07T01:42:35;13.20;99.90
9466;DHT22;4771;48.726;9.006;2023-05-07T01:45:02;13.20;99.90
9466;DHT22;4771;48.726;9.006;2023-05-07T01:47:30;13.30;99.90
9466;DHT22;4771;48.726;9.006;2023-05-07T01:49:57;13.20;99.90
9466;DHT22;4771;48.726;9.006;2023-05-07T01:52:24;13.20;99.90
9466;DHT22;4771;48.726;9.006;2023-05-07T01:54:51;13.20;99.90
9466;DHT22;4771;48.726;9.006;2023-05-07T01:57:19;13.20;99.90
9466;DHT22;4771;48.726;9.006;2023-05-07T01:59:46;13.10;99.90
9466;DHT22;4771;48.726;9.006;2023-05-07T02:02:13;13.10;99.90
9466;DHT22;4771;48.726;9.006;2023-05-07T02:04:40;13.10;99.90
9466;DHT22;4771;48.726;9.006;2023-05-07T02:07:07;13.20;99.90
9466;DHT22;4771;48.726;9.006;2023-05-07T02:09:34;13.20;99.90
9466;DHT22;4771;48.726;9.006;2023-05-07T02:12:01;13.20;99.90
9466;DHT22;4771;48.726;9.006;2023-05-07T02:14:29;13.10;99.90
9466;DHT22;4771;48.726;9.006;2023-05-07T02:16:56;13.10;99.90
9466;DHT22;4771;48.726;9.006;2023-05-07T02:19:23;13.00;99.90
9466;DHT22;4771;48.726;9.006;2023-05-07T02:21:50;13.10;99.90
9466;DHT22;4771;48.726;9.006;2023-05-07T02:24:17;13.00;99.90
9466;DHT22;4771;48.726;9.006;2023-05-07T02:26:44;13.00;99.90
9466;DHT22;4771;48.726;9.006;2023-05-07T02:29:11;13.00;99.90
9466;DHT22;4771;48.726;9.006;2023-05-07T02:31:39;13.00;99.90
9466;DHT22;4771;48.726;9.006;2023-05-07T02:34:06;13.00;99.90
9466;DHT22;4771;48.726;9.006;2023-05-07T02:36:33;13.00;99.90
9466;DHT22;4771;48.726;9.006;2023-05-07T02:39:00;12.90;99.90
9466;DHT22;4771;48.726;9.006;2023-05-07T02:41:28;12.90;99.90
9466;DHT22;4771;48.726;9.006;2023-05-07T02:43:55;12.90;99.90
9466;DHT22;4771;48.726;9.006;2023-05-07T02:46:21;12.80;99.90
9466;DHT22;4771;48.726;9.006;2023-05-07T02:48:50;12.90;99.90
9466;DHT22;4771;48.726;9.006;2023-05-07T02:51:19;12.70;99.90
9466;DHT22;4771;48.726;9.006;2023-05-07T02:53:46;12.70;99.90
9466;DHT22;4771;48.726;9.006;2023-05-07T02:56:13;12.70;99.90
9466;DHT22;4771;48.726;9.006;2023-05-07T02:58:40;12.80;99.90
9466;DHT22;4771;48.726;9.006;2023-05-07T03:01:07;12.70;99.90
9466;DHT22;4771;48.726;9.006;2023-05-07T03:03:34;12.70;99.90
9466;DHT22;4771;48.726;9.006;2023-05-07T03:06:03;12.60;99.90
9466;DHT22;4771;48.726;9.006;2023-05-07T03:08:30;12.70;99.90
9466;DHT22;4771;48.726;9.006;2023-05-07T03:10:57;12.70;99.90
9466;DHT22;4771;48.726;9.006;2023-05-07T03:13:24;12.70;99.90
9466;DHT22;4771;48.726;9.006;2023-05-07T03:15:51;12.60;99.90
9466;DHT22;4771;48.726;9.006;2023-05-07T03:18:17;12.60;99.90
9466;DHT22;4771;48.726;9.006;2023-05-07T03:20:44;12.60;99.90
9466;DHT22;4771;48.726;9.006;2023-05-07T03:23:12;12.60;99.90
9466;DHT22;4771;48.726;9.006;2023-05-07T03:25:39;12.50;99.90
9466;DHT22;4771;48.726;9.006;2023-05-07T03:28:06;12.50;99.90
9466;DHT22;4771;48.726;9.006;2023-05-07T03:30:33;12.40;99.90
9466;DHT22;4771;48.726;9.006;2023-05-07T03:33:00;12.40;99.90
9466;DHT22;4771;48.726;9.006;2023-05-07T03:35:27;12.40;99.90
9466;DHT22;4771;48.726;9.006;2023-05-07T03:37:54;12.40;99.90
9466;DHT22;4771;48.726;9.006;2023-05-07T03:40:22;12.30;99.90
9466;DHT22;4771;48.726;9.006;2023-05-07T03:42:49;12.30;99.90
9466;DHT22;4771;48.726;9.006;2023-05-07T03:45:16;12.20;99.90
9466;DHT22;4771;48.726;9.006;2023-05-07T03:47:43;12.20;99.90
9466;DHT22;4771;48.726;9.006;2023-05-07T03:50:10;12.20;99.90
9466;DHT22;4771;48.726;9.006;2023-05-07T03:52:36;12.20;99.90
9466;DHT22;4771;48.726;9.006;2023-05-07T03:55:04;12.20;99.90
9466;DHT22;4771;48.726;9.006;2023-05-07T03:57:33;12.20;99.90
9466;DHT22;4771;48.726;9.006;2023-05-07T03:59:59;12.10;99.90
9466;DHT22;4771;48.726;9.006;2023-05-07T04:02:26;12.10;99.90
9466;DHT22;4771;48.726;9.006;2023-05-07T04:04:53;12.20;99.90
9466;DHT22;4771;48.726;9.006;2023-05-07T04:07:20;12.10;99.90
9466;DHT22;4771;48.726;9.006;2023-05-07T04:09:47;12.20;99.90
9466;DHT22;4771;48.726;9.006;2023-05-07T04:12:15;12.10;99.90
9466;DHT22;4771;48.726;9.006;2023-05-07T04:14:43;12.10;99.90
9466;DHT22;4771;48.726;9.006;2023-05-07T04:17:11;12.10;99.90
9466;DHT22;4771;48.726;9.006;2023-05-07T04:19:38;12.10;99.90
9466;DHT22;4771;48.726;9.006;2023-05-07T04:22:04;12.10;99.90
9466;DHT22;4771;48.726;9.006;2023-05-07T04:24:32;12.10;99.90
9466;DHT22;4771;48.726;9.006;2023-05-07T04:26:59;12.10;99.90
9466;DHT22;4771;48.726;9.006;2023-05-07T04:29:27;12.10;99.90
9466;DHT22;4771;48.726;9.006;2023-05-07T04:31:55;12.10;99.90
9466;DHT22;4771;48.726;9.006;2023-05-07T04:34:22;12.00;99.90
9466;DHT22;4771;48.726;9.006;2023-05-07T04:36:49;12.00;99.90
9466;DHT22;4771;48.726;9.006;2023-05-07T04:39:15;12.00;99.90
9466;DHT22;4771;48.726;9.006;2023-05-07T04:41:42;12.00;99.90
9466;DHT22;4771;48.726;9.006;2023-05-07T04:44:09;12.10;99.90
9466;DHT22;4771;48.726;9.006;2023-05-07T04:46:36;12.10;99.90
9466;DHT22;4771;48.726;9.006;2023-05-07T04:49:04;12.10;99.90
9466;DHT22;4771;48.726;9.006;2023-05-07T04:51:31;12.10;99.90
9466;DHT22;4771;48.726;9.006;2023-05-07T04:53:58;12.10;99.90
9466;DHT22;4771;48.726;9.006;2023-05-07T04:56:27;12.10;99.90
9466;DHT22;4771;48.726;9.006;2023-05-07T04:58:55;12.10;99.90
9466;DHT22;4771;48.726;9.006;2023-05-07T05:01:22;12.00;99.90
9466;DHT22;4771;48.726;9.006;2023-05-07T05:03:48;12.00;99.90
9466;DHT22;4771;48.726;9.006;2023-05-07T05:06:17;12.00;99.90
9466;DHT22;4771;48.726;9.006;2023-05-07T05:08:44;12.00;99.90
9466;DHT22;4771;48.726;9.006;2023-05-07T05:11:10;11.90;99.90
9466;DHT22;4771;48.726;9.006;2023-05-07T05:13:37;12.00;99.90
9466;DHT22;4771;48.726;9.006;2023-05-07T05:16:05;12.00;99.90
9466;DHT22;4771;48.726;9.006;2023-05-07T05:18:32;12.10;99.90
9466;DHT22;4771;48.726;9.006;2023-05-07T05:20:59;12.20;99.90
9466;DHT22;4771;48.726;9.006;2023-05-07T05:23:27;12.20;99.90
9466;DHT22;4771;48.726;9.006;2023-05-07T05:25:55;12.20;99.90
9466;DHT22;4771;48.726;9.006;2023-05-07T05:28:23;12.30;99.90
9466;DHT22;4771;48.726;9.006;2023-05-07T05:30:50;12.30;99.90
9466;DHT22;4771;48.726;9.006;2023-05-07T05:33:17;12.40;99.90
9466;DHT22;4771;48.726;9.006;2023-05-07T05:35:44;12.40;99.90
9466;DHT22;4771;48.726;9.006;2023-05-07T05:38:11;12.50;99.90
9466;DHT22;4771;48.726;9.006;2023-05-07T05:40:39;12.50;99.90
9466;DHT22;4771;48.726;9.006;2023-05-07T05:43:06;12.60;99.90
9466;DHT22;4771;48.726;9.006;2023-05-07T05:45:33;12.70;99.90
9466;DHT22;4771;48.726;9.006;2023-05-07T05:48:00;12.70;99.90
9466;DHT22;4771;48.726;9.006;2023-05-07T05:50:27;12.80;99.90
9466;DHT22;4771;48.726;9.006;2023-05-07T05:52:54;12.80;99.90
9466;DHT22;4771;48.726;9.006;2023-05-07T05:55:21;12.80;99.90
9466;DHT22;4771;48.726;9.006;2023-05-07T05:57:49;12.90;99.90
9466;DHT22;4771;48.726;9.006;2023-05-07T06:00:17;12.90;99.90
9466;DHT22;4771;48.726;9.006;2023-05-07T06:02:44;13.00;99.90
9466;DHT22;4771;48.726;9.006;2023-05-07T06:05:11;13.00;99.90
9466;DHT22;4771;48.726;9.006;2023-05-07T06:07:37;13.20;99.90
9466;DHT22;4771;48.726;9.006;2023-05-07T06:10:05;13.20;99.90
9466;DHT22;4771;48.726;9.006;2023-05-07T06:12:32;13.20;99.90
9466;DHT22;4771;48.726;9.006;2023-05-07T06:15:01;13.30;99.90
9466;DHT22;4771;48.726;9.006;2023-05-07T06:17:28;13.40;99.90
9466;DHT22;4771;48.726;9.006;2023-05-07T06:19:54;13.50;99.90
9466;DHT22;4771;48.726;9.006;2023-05-07T06:22:21;13.50;99.90
9466;DHT22;4771;48.726;9.006;2023-05-07T06:24:48;13.60;99.90
9466;DHT22;4771;48.726;9.006;2023-05-07T06:27:15;13.70;99.90
9466;DHT22;4771;48.726;9.006;2023-05-07T06:29:42;13.70;99.90
9466;DHT22;4771;48.726;9.006;2023-05-07T06:32:11;13.80;99.90
9466;DHT22;4771;48.726;9.006;2023-05-07T06:34:39;13.80;99.90
9466;DHT22;4771;48.726;9.006;2023-05-07T06:37:06;13.90;99.90
9466;DHT22;4771;48.726;9.006;2023-05-07T06:39:33;14.00;99.90
9466;DHT22;4771;48.726;9.006;2023-05-07T06:42:00;14.00;99.90
9466;DHT22;4771;48.726;9.006;2023-05-07T06:44:27;14.10;99.90
9466;DHT22;4771;48.726;9.006;2023-05-07T06:46:54;14.20;99.90
9466;DHT22;4771;48.726;9.006;2023-05-07T06:49:22;14.20;99.90
9466;DHT22;4771;48.726;9.006;2023-05-07T06:51:49;14.30;99.90
9466;DHT22;4771;48.726;9.006;2023-05-07T06:54:16;14.40;99.90
9466;DHT22;4771;48.726;9.006;2023-05-07T06:56:43;14.50;99.90
9466;DHT22;4771;48.726;9.006;2023-05-07T06:59:09;14.60;99.90
9466;DHT22;4771;48.726;9.006;2023-05-07T07:01:36;14.70;99.90
9466;DHT22;4771;48.726;9.006;2023-05-07T07:04:04;14.80;99.90
9466;DHT22;4771;48.726;9.006;2023-05-07T07:06:32;14.90;99.90
9466;DHT22;4771;48.726;9.006;2023-05-07T07:08:59;14.90;99.90
9466;DHT22;4771;48.726;9.006;2023-05-07T07:11:26;15.10;99.90
9466;DHT22;4771;48.726;9.006;2023-05-07T07:13:53;15.20;99.90
9466;DHT22;4771;48.726;9.006;2023-05-07T07:16:20;15.40;99.90
9466;DHT22;4771;48.726;9.006;2023-05-07T07:18:47;15.60;99.90
9466;DHT22;4771;48.726;9.006;2023-05-07T07:21:14;15.60;99.90
9466;DHT22;4771;48.726;9.006;2023-05-07T07:23:42;15.80;99.90
9466;DHT22;4771;48.726;9.006;2023-05-07T07:26:09;15.90;99.90
9466;DHT22;4771;48.726;9.006;2023-05-07T07:28:42;16.00;99.90
9466;DHT22;4771;48.726;9.006;2023-05-07T07:31:09;16.10;99.90
9466;DHT22;4771;48.726;9.006;2023-05-07T07:33:36;16.20;99.90
9466;DHT22;4771;48.726;9.006;2023-05-07T07:36:04;16.20;99.90
9466;DHT22;4771;48.726;9.006;2023-05-07T07:38:31;16.30;99.90
9466;DHT22;4771;48.726;9.006;2023-05-07T07:40:59;16.40;99.90
9466;DHT22;4771;48.726;9.006;2023-05-07T07:43:26;16.50;99.90
9466;DHT22;4771;48.726;9.006;2023-05-07T07:45:53;16.60;99.90
9466;DHT22;4771;48.726;9.006;2023-05-07T07:48:20;16.70;99.90
9466;DHT22;4771;48.726;9.006;2023-05-07T07:50:48;16.80;99.90
9466;DHT22;4771;48.726;9.006;2023-05-07T07:53:15;16.80;99.90
9466;DHT22;4771;48.726;9.006;2023-05-07T07:55:42;16.90;99.90
9466;DHT22;4771;48.726;9.006;2023-05-07T07:58:11;16.90;99.90
9466;DHT22;4771;48.726;9.006;2023-05-07T08:00:37;16.90;99.90
9466;DHT22;4771;48.726;9.006;2023-05-07T08:03:04;16.90;99.90
9466;DHT22;4771;48.726;9.006;2023-05-07T08:05:32;16.90;99.90
9466;DHT22;4771;48.726;9.006;2023-05-07T08:07:59;16.90;99.90
9466;DHT22;4771;48.726;9.006;2023-05-07T08:10:26;17.10;99.90
9466;DHT22;4771;48.726;9.006;2023-05-07T08:12:53;17.20;99.90
9466;DHT22;4771;48.726;9.006;2023-05-07T08:15:21;17.20;99.90
9466;DHT22;4771;48.726;9.006;2023-05-07T08:17:48;17.30;99.90
9466;DHT22;4771;48.726;9.006;2023-05-07T08:20:15;17.40;99.90
9466;DHT22;4771;48.726;9.006;2023-05-07T08:22:42;17.60;99.90
9466;DHT22;4771;48.726;9.006;2023-05-07T08:25:09;17.70;99.90
9466;DHT22;4771;48.726;9.006;2023-05-07T08:27:36;17.70;99.90
9466;DHT22;4771;48.726;9.006;2023-05-07T08:30:04;17.70;99.90
9466;DHT22;4771;48.726;9.006;2023-05-07T08:32:32;17.80;99.90
9466;DHT22;4771;48.726;9.006;2023-05-07T08:34:59;17.80;99.90
9466;DHT22;4771;48.726;9.006;2023-05-07T08:37:26;17.90;99.90
9466;DHT22;4771;48.726;9.006;2023-05-07T08:39:53;17.90;99.90
9466;DHT22;4771;48.726;9.006;2023-05-07T08:42:22;18.00;99.90
9466;DHT22;4771;48.726;9.006;2023-05-07T08:44:51;18.10;99.90
9466;DHT22;4771;48.726;9.006;2023-05-07T08:47:19;18.10;99.90
9466;DHT22;4771;48.726;9.006;2023-05-07T08:49:50;18.20;99.90
9466;DHT22;4771;48.726;9.006;2023-05-07T08:52:17;18.30;99.90
9466;DHT22;4771;48.726;9.006;2023-05-07T08:54:45;18.30;99.90
9466;DHT22;4771;48.726;9.006;2023-05-07T08:57:13;18.30;99.90
9466;DHT22;4771;48.726;9.006;2023-05-07T08:59:40;18.40;99.90
9466;DHT22;4771;48.726;9.006;2023-05-07T09:02:09;18.50;99.90
9466;DHT22;4771;48.726;9.006;2023-05-07T09:04:36;18.50;99.90
9466;DHT22;4771;48.726;9.006;2023-05-07T09:07:05;18.70;99.90
9466;DHT22;4771;48.726;9.006;2023-05-07T09:09:32;18.70;99.90
9466;DHT22;4771;48.726;9.006;2023-05-07T09:11:59;18.80;99.90
9466;DHT22;4771;48.726;9.006;2023-05-07T09:14:27;18.90;99.90
9466;DHT22;4771;48.726;9.006;2023-05-07T09:16:54;19.00;99.90
9466;DHT22;4771;48.726;9.006;2023-05-07T09:19:23;19.20;99.90
9466;DHT22;4771;48.726;9.006;2023-05-07T09:21:51;19.40;99.90
9466;DHT22;4771;48.726;9.006;2023-05-07T09:24:25;19.50;99.90
9466;DHT22;4771;48.726;9.006;2023-05-07T09:26:54;19.50;99.90
9466;DHT22;4771;48.726;9.006;2023-05-07T09:29:21;19.50;99.90
9466;DHT22;4771;48.726;9.006;2023-05-07T09:31:48;19.40;99.90
9466;DHT22;4771;48.726;9.006;2023-05-07T09:34:16;19.40;99.90
9466;DHT22;4771;48.726;9.006;2023-05-07T09:36:43;19.50;99.90
9466;DHT22;4771;48.726;9.006;2023-05-07T09:39:10;19.70;99.90
9466;DHT22;4771;48.726;9.006;2023-05-07T09:41:45;19.80;99.90
9466;DHT22;4771;48.726;9.006;2023-05-07T09:44:12;19.90;99.90
9466;DHT22;4771;48.726;9.006;2023-05-07T09:46:43;19.90;99.90
9466;DHT22;4771;48.726;9.006;2023-05-07T09:49:15;20.00;99.90
9466;DHT22;4771;48.726;9.006;2023-05-07T09:51:47;20.00;99.90
9466;DHT22;4771;48.726;9.006;2023-05-07T09:54:15;20.00;99.90
9466;DHT22;4771;48.726;9.006;2023-05-07T09:56:44;20.30;99.90
9466;DHT22;4771;48.726;9.006;2023-05-07T09:59:13;20.40;99.90
9466;DHT22;4771;48.726;9.006;2023-05-07T10:01:41;20.50;99.90
9466;DHT22;4771;48.726;9.006;2023-05-07T10:04:08;20.50;99.90
9466;DHT22;4771;48.726;9.006;2023-05-07T10:06:36;20.70;99.90
9466;DHT22;4771;48.726;9.006;2023-05-07T10:09:04;20.60;99.90
9466;DHT22;4771;48.726;9.006;2023-05-07T10:11:32;20.70;99.90
9466;DHT22;4771;48.726;9.006;2023-05-07T10:14:01;20.80;99.90
9466;DHT22;4771;48.726;9.006;2023-05-07T10:16:34;20.80;99.90
9466;DHT22;4771;48.726;9.006;2023-05-07T10:19:02;20.80;99.90
9466;DHT22;4771;48.726;9.006;2023-05-07T10:21:30;21.00;99.90
9466;DHT22;4771;48.726;9.006;2023-05-07T10:23:59;21.00;99.90
9466;DHT22;4771;48.726;9.006;2023-05-07T10:26:28;21.10;99.90
9466;DHT22;4771;48.726;9.006;2023-05-07T10:28:59;21.20;99.90
9466;DHT22;4771;48.726;9.006;2023-05-07T10:31:44;21.60;99.90
9466;DHT22;4771;48.726;9.006;2023-05-07T10:34:18;21.80;99.90
9466;DHT22;4771;48.726;9.006;2023-05-07T10:36:47;21.80;99.90
9466;DHT22;4771;48.726;9.006;2023-05-07T10:39:14;21.90;99.90
9466;DHT22;4771;48.726;9.006;2023-05-07T10:41:41;22.00;99.90
9466;DHT22;4771;48.726;9.006;2023-05-07T10:44:08;22.10;99.90
9466;DHT22;4771;48.726;9.006;2023-05-07T10:46:36;22.10;99.90
9466;DHT22;4771;48.726;9.006;2023-05-07T10:49:10;22.30;99.90
9466;DHT22;4771;48.726;9.006;2023-05-07T10:51:38;22.50;99.90
9466;DHT22;4771;48.726;9.006;2023-05-07T10:54:21;22.70;99.90
9466;DHT22;4771;48.726;9.006;2023-05-07T10:56:49;22.70;99.30
9466;DHT22;4771;48.726;9.006;2023-05-07T10:59:34;22.60;98.40
9466;DHT22;4771;48.726;9.006;2023-05-07T11:02:07;22.50;98.80
9466;DHT22;4771;48.726;9.006;2023-05-07T11:04:36;22.40;98.90
9466;DHT22;4771;48.726;9.006;2023-05-07T11:07:26;22.20;97.80
9466;DHT22;4771;48.726;9.006;2023-05-07T11:10:04;22.10;98.90
9466;DHT22;4771;48.726;9.006;2023-05-07T11:12:47;22.00;99.30
9466;DHT22;4771;48.726;9.006;2023-05-07T11:15:15;21.90;99.20
9466;DHT22;4771;48.726;9.006;2023-05-07T11:17:54;21.70;99.00
9466;DHT22;4771;48.726;9.006;2023-05-07T11:20:22;21.70;99.90
9466;DHT22;4771;48.726;9.006;2023-05-07T11:26:14;21.50;99.90
9466;DHT22;4771;48.726;9.006;2023-05-07T11:28:43;21.50;99.90
9466;DHT22;4771;48.726;9.006;2023-05-07T11:31:10;21.40;99.90
9466;DHT22;4771;48.726;9.006;2023-05-07T11:33:39;21.30;99.90
9466;DHT22;4771;48.726;9.006;2023-05-07T11:36:08;21.20;99.90
9466;DHT22;4771;48.726;9.006;2023-05-07T11:38:36;21.10;99.90
9466;DHT22;4771;48.726;9.006;2023-05-07T11:41:03;21.00;99.90
9466;DHT22;4771;48.726;9.006;2023-05-07T11:43:31;20.90;99.90
9466;DHT22;4771;48.726;9.006;2023-05-07T11:46:06;20.80;99.90
9466;DHT22;4771;48.726;9.006;2023-05-07T11:48:33;20.70;99.90
9466;DHT22;4771;48.726;9.006;2023-05-07T11:51:03;20.60;99.90
9466;DHT22;4771;48.726;9.006;2023-05-07T11:53:36;20.50;99.90
9466;DHT22;4771;48.726;9.006;2023-05-07T11:56:06;20.40;99.90
9466;DHT22;4771;48.726;9.006;2023-05-07T11:58:33;20.20;99.90
9466;DHT22;4771;48.726;9.006;2023-05-07T12:01:00;19.70;99.90
9466;DHT22;4771;48.726;9.006;2023-05-07T12:03:27;19.10;99.90
9466;DHT22;4771;48.726;9.006;2023-05-07T12:05:54;18.80;99.90
9466;DHT22;4771;48.726;9.006;2023-05-07T12:08:23;17.90;99.90
9466;DHT22;4771;48.726;9.006;2023-05-07T12:10:50;17.10;99.90
9466;DHT22;4771;48.726;9.006;2023-05-07T12:13:19;16.90;99.90
9466;DHT22;4771;48.726;9.006;2023-05-07T12:15:46;16.70;99.90
9466;DHT22;4771;48.726;9.006;2023-05-07T12:18:13;16.60;99.90
9466;DHT22;4771;48.726;9.006;2023-05-07T12:20:40;16.50;99.90
9466;DHT22;4771;48.726;9.006;2023-05-07T12:23:07;16.50;99.90
9466;DHT22;4771;48.726;9.006;2023-05-07T12:25:36;16.30;99.90
9466;DHT22;4771;48.726;9.006;2023-05-07T12:28:04;16.40;99.90
9466;DHT22;4771;48.726;9.006;2023-05-07T12:30:31;16.20;99.90
9466;DHT22;4771;48.726;9.006;2023-05-07T12:32:58;16.20;99.90
9466;DHT22;4771;48.726;9.006;2023-05-07T12:35:28;16.30;99.90
9466;DHT22;4771;48.726;9.006;2023-05-07T12:37:55;16.30;99.90
9466;DHT22;4771;48.726;9.006;2023-05-07T12:40:24;16.30;99.90
9466;DHT22;4771;48.726;9.006;2023-05-07T12:42:54;16.30;99.90
9466;DHT22;4771;48.726;9.006;2023-05-07T12:45:21;16.40;99.90
9466;DHT22;4771;48.726;9.006;2023-05-07T12:47:48;16.30;99.90
9466;DHT22;4771;48.726;9.006;2023-05-07T12:50:18;16.10;99.90
9466;DHT22;4771;48.726;9.006;2023-05-07T12:52:47;16.00;99.90
9466;DHT22;4771;48.726;9.006;2023-05-07T12:55:16;15.90;99.90
9466;DHT22;4771;48.726;9.006;2023-05-07T12:57:45;15.70;99.90
9466;DHT22;4771;48.726;9.006;2023-05-07T13:00:16;15.60;99.90
9466;DHT22;4771;48.726;9.006;2023-05-07T13:02:45;15.70;99.90
9466;DHT22;4771;48.726;9.006;2023-05-07T13:05:11;15.60;99.90
9466;DHT22;4771;48.726;9.006;2023-05-07T13:07:39;15.60;99.90
9466;DHT22;4771;48.726;9.006;2023-05-07T13:10:07;15.60;99.90
9466;DHT22;4771;48.726;9.006;2023-05-07T13:12:34;15.60;99.90
9466;DHT22;4771;48.726;9.006;2023-05-07T13:15:01;15.60;99.90
9466;DHT22;4771;48.726;9.006;2023-05-07T13:17:30;15.60;99.90
9466;DHT22;4771;48.726;9.006;2023-05-07T13:19:57;15.70;99.90
9466;DHT22;4771;48.726;9.006;2023-05-07T13:22:24;15.70;99.90
9466;DHT22;4771;48.726;9.006;2023-05-07T13:24:51;15.70;99.90
9466;DHT22;4771;48.726;9.006;2023-05-07T13:27:17;15.70;99.90
9466;DHT22;4771;48.726;9.006;2023-05-07T13:29:45;15.80;99.90
9466;DHT22;4771;48.726;9.006;2023-05-07T13:32:12;15.80;99.90
9466;DHT22;4771;48.726;9.006;2023-05-07T13:34:42;15.90;99.90
9466;DHT22;4771;48.726;9.006;2023-05-07T13:37:09;15.90;99.90
9466;DHT22;4771;48.726;9.006;2023-05-07T13:39:36;15.90;99.90
9466;DHT22;4771;48.726;9.006;2023-05-07T13:42:03;15.90;99.90
9466;DHT22;4771;48.726;9.006;2023-05-07T13:44:30;16.00;99.90
9466;DHT22;4771;48.726;9.006;2023-05-07T13:46:57;15.90;99.90
9466;DHT22;4771;48.726;9.006;2023-05-07T13:49:24;16.00;99.90
9466;DHT22;4771;48.726;9.006;2023-05-07T13:51:52;16.00;99.90
9466;DHT22;4771;48.726;9.006;2023-05-07T13:54:19;16.00;99.90
9466;DHT22;4771;48.726;9.006;2023-05-07T13:56:46;16.00;99.90
9466;DHT22;4771;48.726;9.006;2023-05-07T13:59:13;16.00;99.90
9466;DHT22;4771;48.726;9.006;2023-05-07T14:01:40;16.00;99.90
9466;DHT22;4771;48.726;9.006;2023-05-07T14:04:07;16.10;99.90
9466;DHT22;4771;48.726;9.006;2023-05-07T14:06:34;16.10;99.90
9466;DHT22;4771;48.726;9.006;2023-05-07T14:09:02;16.10;99.90
9466;DHT22;4771;48.726;9.006;2023-05-07T14:11:29;16.10;99.90
9466;DHT22;4771;48.726;9.006;2023-05-07T14:13:56;16.10;99.90
9466;DHT22;4771;48.726;9.006;2023-05-07T14:16:24;16.00;99.90
9466;DHT22;4771;48.726;9.006;2023-05-07T14:18:50;16.00;99.90
9466;DHT22;4771;48.726;9.006;2023-05-07T14:21:17;16.00;99.90
9466;DHT22;4771;48.726;9.006;2023-05-07T14:23:44;16.00;99.90
9466;DHT22;4771;48.726;9.006;2023-05-07T14:26:13;16.00;99.90
9466;DHT22;4771;48.726;9.006;2023-05-07T14:28:40;16.00;99.90
9466;DHT22;4771;48.726;9.006;2023-05-07T14:31:11;16.00;99.90
9466;DHT22;4771;48.726;9.006;2023-05-07T14:33:38;16.00;99.90
9466;DHT22;4771;48.726;9.006;2023-05-07T14:36:05;16.00;99.90
9466;DHT22;4771;48.726;9.006;2023-05-07T14:38:32;16.00;99.90
9466;DHT22;4771;48.726;9.006;2023-05-07T14:40:59;16.00;99.90
9466;DHT22;4771;48.726;9.006;2023-05-07T14:43:28;15.90;99.90
9466;DHT22;4771;48.726;9.006;2023-05-07T14:45:54;15.90;99.90
9466;DHT22;4771;48.726;9.006;2023-05-07T14:48:21;15.80;99.90
9466;DHT22;4771;48.726;9.006;2023-05-07T14:50:48;15.80;99.90
9466;DHT22;4771;48.726;9.006;2023-05-07T14:53:15;15.80;99.90
9466;DHT22;4771;48.726;9.006;2023-05-07T14:55:42;15.80;99.90
9466;DHT22;4771;48.726;9.006;2023-05-07T14:58:09;15.80;99.90
9466;DHT22;4771;48.726;9.006;2023-05-07T15:00:38;15.80;99.90
9466;DHT22;4771;48.726;9.006;2023-05-07T15:03:06;15.80;99.90
9466;DHT22;4771;48.726;9.006;2023-05-07T15:05:33;15.80;99.90
9466;DHT22;4771;48.726;9.006;2023-05-07T15:08:00;15.80;99.90
9466;DHT22;4771;48.726;9.006;2023-05-07T15:10:27;15.80;99.90
9466;DHT22;4771;48.726;9.006;2023-05-07T15:12:54;15.80;99.90
9466;DHT22;4771;48.726;9.006;2023-05-07T15:15:21;15.80;99.90
9466;DHT22;4771;48.726;9.006;2023-05-07T15:17:49;15.80;99.90
9466;DHT22;4771;48.726;9.006;2023-05-07T15:20:16;15.90;99.90
9466;DHT22;4771;48.726;9.006;2023-05-07T15:22:43;16.00;99.90
9466;DHT22;4771;48.726;9.006;2023-05-07T15:25:10;16.00;99.90
9466;DHT22;4771;48.726;9.006;2023-05-07T15:27:37;16.10;99.90
9466;DHT22;4771;48.726;9.006;2023-05-07T15:30:05;16.10;99.90
9466;DHT22;4771;48.726;9.006;2023-05-07T15:32:32;16.10;99.90
9466;DHT22;4771;48.726;9.006;2023-05-07T15:35:00;16.20;99.90
9466;DHT22;4771;48.726;9.006;2023-05-07T15:37:27;16.20;99.90
9466;DHT22;4771;48.726;9.006;2023-05-07T15:39:54;16.20;99.90
9466;DHT22;4771;48.726;9.006;2023-05-07T15:42:20;16.20;99.90
9466;DHT22;4771;48.726;9.006;2023-05-07T15:44:47;16.10;99.90
9466;DHT22;4771;48.726;9.006;2023-05-07T15:47:14;16.10;99.90
9466;DHT22;4771;48.726;9.006;2023-05-07T15:49:41;16.10;99.90
9466;DHT22;4771;48.726;9.006;2023-05-07T15:52:10;16.20;99.90
9466;DHT22;4771;48.726;9.006;2023-05-07T15:54:39;16.20;99.90
9466;DHT22;4771;48.726;9.006;2023-05-07T15:57:09;16.00;99.90
9466;DHT22;4771;48.726;9.006;2023-05-07T15:59:36;16.00;99.90
9466;DHT22;4771;48.726;9.006;2023-05-07T16:02:03;16.10;99.90
9466;DHT22;4771;48.726;9.006;2023-05-07T16:04:30;16.20;99.90
9466;DHT22;4771;48.726;9.006;2023-05-07T16:06:57;16.10;99.90
9466;DHT22;4771;48.726;9.006;2023-05-07T16:09:25;16.10;99.90